This is the latest recevied weather packets stored in our database for station/object KJ4W. If no packets are shown the sender has not sent any weather packets the latest 1 day(s).
| Time | Temp. | Humidity | Pressure | Rain* | Wind** | Luminosity | Snow |
|---|---|---|---|---|---|---|---|
| 1778003930 | 18.89° C | 88% | 1008.8 hPa | 0 mm | 5.36 m/s, 232° | - | - |
| 1778003032 | 18.33° C | 92% | 1008.8 hPa | 0 mm | 3.13 m/s, 178° | - | - |
| 1778002131 | 17.22° C | 92% | 1009.2 hPa | 0 mm | 1.79 m/s, 180° | - | - |
| 1778001231 | 16.67° C | 93% | 1009.5 hPa | 0 mm | 2.24 m/s, 178° | - | - |
| 1778000331 | 16.67° C | 94% | 1009.6 hPa | 0 mm | 0.45 m/s, 136° | - | - |
| 1777999431 | 16.11° C | 94% | 1009.7 hPa | 0 mm | 0.89 m/s, 174° | - | - |
| 1777998531 | 16.11° C | 95% | 1009.5 hPa | 0 mm | 0.89 m/s, 168° | - | - |
| 1777997630 | 15.56° C | 95% | 1009.8 hPa | 0 mm | 1.79 m/s, 190° | - | - |
| 1777996730 | 15.56° C | 95% | 1009.5 hPa | 0 mm | 0.45 m/s, 174° | - | - |
| 1777995830 | 15.56° C | 95% | 1009.7 hPa | 0 mm | 2.24 m/s, 180° | - | - |
| 1777994931 | 15° C | 95% | 1009.5 hPa | 0 mm | 0.89 m/s, 174° | - | - |
| 1777993130 | 15° C | 94% | 1010.1 hPa | 0 mm | 2.24 m/s, 190° | - | - |
| 1777992229 | 15° C | 92% | 1010 hPa | 0 mm | 1.34 m/s, 192° | - | - |
| 1777991331 | 15.56° C | 89% | 1010.3 hPa | 0 mm | 1.34 m/s, 174° | - | - |
| 1777990430 | 16.11° C | 84% | 1010.2 hPa | 0 mm | 4.92 m/s, 191° | - | - |
| 1777989531 | 17.22° C | 78% | 1010.1 hPa | 0 mm | 3.58 m/s, 173° | - | - |
| 1777988630 | 17.78° C | 74% | 1009.5 hPa | 0 mm | 3.58 m/s, 183° | - | - |
| 1777987731 | 17.78° C | 73% | 1009.5 hPa | 0 mm | 2.68 m/s, 200° | - | - |
| 1777986832 | 17.78° C | 72% | 1009.4 hPa | 0 mm | 3.58 m/s, 158° | - | - |
| 1777985930 | 17.78° C | 73% | 1009.4 hPa | 0 mm | 2.68 m/s, 169° | - | - |
| 1777985030 | 17.22° C | 73% | 1009.2 hPa | 0 mm | 3.13 m/s, 169° | - | - |
| 1777984129 | 16.67° C | 74% | 1009 hPa | 0 mm | 2.24 m/s, 183° | - | - |
| 1777983231 | 16.67° C | 74% | 1008.8 hPa | 0 mm | 1.34 m/s, 202° | - | - |
| 1777982330 | 16.67° C | 74% | 1008.8 hPa | 0 mm | 2.24 m/s, 186° | - | - |
| 1777981431 | 16.11° C | 74% | 1008.5 hPa | 0 mm | 2.68 m/s, 187° | - | - |
* Rain latest hour (hover to see other rain measurements)
** Current wind speed in m/s (hover to see current wind gust speed)